Time;durP1;ratioP1;P1;durP2;ratioP2;P2;SDS_P1;SDS_P2;PMS_P1;PMS_P2;Temp;Humidity;BMP_temperature;BMP_pressure;BME280_temperature;BME280_humidity;BME280_pressure;Samples;Min_cycle;Max_cycle;Signal;HPM_P1;HPM_P2
2023/06/19 00:09:36;;;;;;;9.23;6.22;;;23.00;1.00;;;;;;20414342;28;20579;-44
2023/06/19 00:19:58;;;;;;;9.38;5.80;;;23.00;1.00;;;;;;20416608;28;20464;-45
2023/06/19 00:30:20;;;;;;;8.88;5.80;;;22.90;1.00;;;;;;20440396;28;20035;-44
2023/06/19 00:40:41;;;;;;;8.10;5.18;;;22.70;1.00;;;;;;20439006;29;20554;-45
2023/06/19 00:51:03;;;;;;;6.25;4.53;;;22.50;1.00;;;;;;20447248;28;20054;-43
2023/06/19 01:01:24;;;;;;;5.07;1.80;;;22.30;1.00;;;;;;20434291;28;20039;-43
2023/06/19 01:11:52;;;;;;;4.18;1.20;;;22.10;1.00;;;;;;20429273;29;20047;-42
2023/06/19 01:22:26;;;;;;;3.33;1.63;;;21.70;1.00;;;;;;20446114;28;20038;-45
2023/06/19 01:33:00;;;;;;;3.08;1.50;;;21.40;1.00;;;;;;20453384;29;20054;-43
2023/06/19 01:43:22;;;;;;;3.85;1.70;;;21.20;1.00;;;;;;20451875;28;20063;-43
2023/06/19 01:53:44;;;;;;;3.58;2.13;;;21.10;1.00;;;;;;20447720;28;20477;-42
2023/06/19 02:04:05;;;;;;;4.95;1.90;;;21.00;1.00;;;;;;20447524;29;20031;-42
2023/06/19 02:14:26;;;;;;;4.03;2.38;;;21.00;1.00;;;;;;20455265;28;20039;-43
2023/06/19 02:24:48;;;;;;;4.45;2.90;;;20.80;1.00;;;;;;20438669;29;20496;-43
2023/06/19 02:35:11;;;;;;;5.57;2.85;;;20.80;1.00;;;;;;20440425;28;20070;-43
2023/06/19 02:45:32;;;;;;;4.97;3.35;;;20.80;1.00;;;;;;20457959;28;20043;-42
2023/06/19 02:55:53;;;;;;;5.00;3.15;;;20.70;1.00;;;;;;20438697;29;20434;-42
2023/06/19 03:06:15;;;;;;;9.85;5.53;;;20.80;1.00;;;;;;20429226;28;20047;-42
2023/06/19 03:16:36;;;;;;;10.73;6.55;;;20.70;1.00;;;;;;20436367;28;20047;-42
2023/06/19 03:26:57;;;;;;;8.20;5.88;;;20.70;1.00;;;;;;20429522;28;20082;-42
2023/06/19 03:37:19;;;;;;;9.35;5.45;;;20.60;1.00;;;;;;20420425;28;20728;-42
2023/06/19 03:47:40;;;;;;;8.30;5.40;;;20.50;1.00;;;;;;20435024;28;20082;-41
2023/06/19 03:58:03;;;;;;;10.50;5.85;;;20.40;1.00;;;;;;20427416;28;20043;-42
2023/06/19 04:08:25;;;;;;;11.75;7.53;;;20.30;1.00;;;;;;20421806;28;20043;-42
2023/06/19 04:18:46;;;;;;;9.82;6.32;;;20.30;1.00;;;;;;20433847;28;20065;-43
2023/06/19 04:29:08;;;;;;;8.68;4.88;;;20.30;1.00;;;;;;20432524;28;20034;-42
2023/06/19 04:39:29;;;;;;;9.02;5.13;;;20.30;1.00;;;;;;20457687;28;21006;-42
2023/06/19 04:49:50;;;;;;;6.70;3.83;;;20.20;1.00;;;;;;20430045;28;20055;-42
2023/06/19 05:00:14;;;;;;;6.53;4.40;;;20.00;1.00;;;;;;20421782;28;20047;-42
2023/06/19 05:10:35;;;;;;;8.25;5.50;;;19.60;1.00;;;;;;20432045;28;20039;-42
2023/06/19 05:20:57;;;;;;;6.97;5.32;;;19.30;1.00;;;;;;20427343;28;20047;-41
2023/06/19 05:31:19;;;;;;;5.55;3.80;;;19.10;1.00;;;;;;20423228;28;20036;-41
2023/06/19 05:41:40;;;;;;;10.15;4.25;;;19.10;1.00;;;;;;20425313;28;20044;-41
2023/06/19 05:52:01;;;;;;;7.07;4.65;;;19.10;1.00;;;;;;20423162;28;20059;-42
2023/06/19 06:02:28;;;;;;;6.88;4.80;;;19.10;1.00;;;;;;20421601;28;20376;-42
2023/06/19 06:12:49;;;;;;;7.80;4.75;;;19.00;1.00;;;;;;20443518;28;20051;-42
2023/06/19 06:23:11;;;;;;;11.38;6.50;;;19.00;1.00;;;;;;20424671;28;20036;-41
2023/06/19 06:33:32;;;;;;;13.00;5.75;;;19.10;1.00;;;;;;20410723;28;20746;-41
2023/06/19 06:43:55;;;;;;;11.45;5.63;;;19.30;1.00;;;;;;20437831;28;20051;-41
2023/06/19 06:54:16;;;;;;;14.48;9.90;;;19.40;1.00;;;;;;20442219;29;20051;-41
2023/06/19 07:04:38;;;;;;;13.18;7.93;;;19.60;1.00;;;;;;20435547;28;20094;-42
2023/06/19 07:14:59;;;;;;;14.02;7.95;;;19.50;1.00;;;;;;20452208;28;20058;-44
2023/06/19 07:25:24;;;;;;;10.30;7.18;;;19.70;1.00;;;;;;20449797;29;20052;-42
2023/06/19 07:35:45;;;;;;;10.68;6.43;;;19.60;1.00;;;;;;20451518;28;20035;-42
2023/06/19 07:46:06;;;;;;;12.52;7.38;;;19.60;1.00;;;;;;20445197;29;20070;-42
2023/06/19 07:56:28;;;;;;;12.88;7.30;;;19.80;1.00;;;;;;20452391;28;20870;-42
2023/06/19 08:06:49;;;;;;;12.10;7.15;;;19.70;1.00;;;;;;20450921;28;20043;-42
2023/06/19 08:17:11;;;;;;;11.68;7.25;;;20.10;1.00;;;;;;20449063;28;20039;-42
2023/06/19 08:27:32;;;;;;;10.10;6.45;;;20.20;1.00;;;;;;20459448;28;20206;-42
2023/06/19 08:37:54;;;;;;;12.88;8.52;;;20.30;1.00;;;;;;20423242;29;20039;-41
2023/06/19 08:48:16;;;;;;;17.17;11.73;;;20.50;1.00;;;;;;20454688;28;20730;-42
2023/06/19 08:58:38;;;;;;;18.77;11.38;;;20.60;1.00;;;;;;20449199;28;20051;-43
2023/06/19 09:09:00;;;;;;;18.10;11.52;;;20.90;1.00;;;;;;20448357;28;20039;-43
2023/06/19 09:19:21;;;;;;;16.95;11.80;;;20.90;1.00;;;;;;20445965;28;20054;-42
2023/06/19 09:29:45;;;;;;;16.83;11.23;;;21.10;1.00;;;;;;20441616;28;20568;-43
2023/06/19 09:40:10;;;;;;;17.70;12.43;;;20.90;1.00;;;;;;20456618;28;20054;-43
2023/06/19 09:50:34;;;;;;;16.02;11.45;;;21.00;1.00;;;;;;20435649;28;20070;-43
2023/06/19 10:00:55;;;;;;;16.55;12.15;;;21.00;1.00;;;;;;20443075;29;20574;-42
2023/06/19 10:11:17;;;;;;;17.40;11.23;;;21.40;1.00;;;;;;20450311;28;20043;-43
2023/06/19 10:21:49;;;;;;;19.30;13.02;;;21.90;1.00;;;;;;20457127;28;20411;-44
2023/06/19 10:32:10;;;;;;;16.33;12.27;;;21.80;1.00;;;;;;20436040;29;20054;-44
2023/06/19 10:42:32;;;;;;;17.92;12.80;;;22.10;1.00;;;;;;20458031;28;20047;-48
2023/06/19 10:52:54;;;;;;;21.08;12.55;;;22.60;1.00;;;;;;20435046;28;20767;-44
2023/06/19 11:03:16;;;;;;;15.60;10.70;;;22.50;1.00;;;;;;20447190;28;20050;-44
2023/06/19 11:13:37;;;;;;;13.32;9.43;;;22.60;1.00;;;;;;20439616;28;20414;-44
2023/06/19 11:23:59;;;;;;;16.13;11.50;;;22.50;1.00;;;;;;20442091;28;20043;-43
2023/06/19 11:34:32;;;;;;;14.68;10.60;;;23.10;1.00;;;;;;20443275;28;20050;-43
2023/06/19 11:45:02;;;;;;;11.27;8.10;;;23.10;1.00;;;;;;20453100;28;20055;-43
2023/06/19 11:55:23;;;;;;;13.25;7.97;;;23.70;1.00;;;;;;20446132;28;20051;-43
2023/06/19 12:05:44;;;;;;;11.18;8.38;;;24.00;1.00;;;;;;20435807;28;20065;-43
2023/06/19 12:16:06;;;;;;;9.02;5.20;;;24.60;1.00;;;;;;20430762;28;20325;-41
2023/06/19 12:26:28;;;;;;;8.10;6.10;;;25.20;1.00;;;;;;20438899;28;20495;-41
2023/06/19 12:36:49;;;;;;;10.18;6.78;;;25.20;1.00;;;;;;20430343;28;20419;-41
2023/06/19 12:47:11;;;;;;;10.38;8.50;;;25.20;1.00;;;;;;20424467;28;20047;-41
2023/06/19 12:57:32;;;;;;;10.25;7.93;;;25.30;1.00;;;;;;20429685;28;20058;-41
2023/06/19 13:07:53;;;;;;;12.48;8.43;;;25.10;1.00;;;;;;20443480;28;20055;-42
2023/06/19 13:18:15;;;;;;;12.25;7.18;;;25.00;1.00;;;;;;20472981;28;20031;-41
2023/06/19 13:28:37;;;;;;;8.93;6.30;;;24.60;1.00;;;;;;20453067;29;20043;-42
2023/06/19 13:38:58;;;;;;;9.07;7.60;;;25.50;1.00;;;;;;20455321;28;20058;-42
2023/06/19 13:49:19;;;;;;;12.13;7.55;;;25.20;1.00;;;;;;20459684;28;20052;-42
2023/06/19 13:59:42;;;;;;;10.13;7.32;;;25.40;1.00;;;;;;20449957;29;20039;-42
2023/06/19 14:10:04;;;;;;;11.13;8.82;;;25.70;1.00;;;;;;20453093;28;20039;-42
2023/06/19 14:20:26;;;;;;;13.52;9.65;;;25.60;1.00;;;;;;20446756;28;20034;-42
2023/06/19 14:30:47;;;;;;;10.63;8.82;;;25.90;1.00;;;;;;20447785;28;20039;-41
2023/06/19 14:41:08;;;;;;;10.57;8.68;;;25.90;1.00;;;;;;20442622;28;20047;-42
2023/06/19 14:51:30;;;;;;;9.55;7.93;;;25.70;1.00;;;;;;20433466;28;20048;-41
2023/06/19 15:01:51;;;;;;;10.00;7.70;;;25.70;1.00;;;;;;20440149;28;20040;-41
2023/06/19 15:12:12;;;;;;;10.30;8.65;;;25.80;1.00;;;;;;20442121;28;20031;-42
2023/06/19 15:22:34;;;;;;;10.82;7.28;;;25.80;1.00;;;;;;20446021;29;20063;-42
2023/06/19 15:32:55;;;;;;;8.88;5.40;;;25.40;1.00;;;;;;20451023;28;20035;-42
2023/06/19 15:43:17;;;;;;;8.27;4.63;;;25.40;1.00;;;;;;20450532;28;20354;-42
2023/06/19 15:53:39;;;;;;;6.07;4.35;;;25.70;1.00;;;;;;20427908;28;20438;-42
2023/06/19 16:04:00;;;;;;;8.07;4.40;;;25.50;1.00;;;;;;20440745;28;20043;-42
2023/06/19 16:14:22;;;;;;;6.18;3.45;;;25.40;1.00;;;;;;20429525;29;20043;-41
2023/06/19 16:24:43;;;;;;;7.28;3.83;;;25.30;1.00;;;;;;20433179;28;21133;-41
2023/06/19 16:35:05;;;;;;;9.77;4.05;;;25.00;1.00;;;;;;20432037;28;20883;-42
2023/06/19 16:45:27;;;;;;;6.70;4.30;;;24.90;1.00;;;;;;20445532;28;20054;-42
2023/06/19 16:55:49;;;;;;;7.22;3.67;;;24.80;1.00;;;;;;20431002;28;20046;-42
2023/06/19 17:06:10;;;;;;;7.22;3.65;;;24.60;1.00;;;;;;20437494;28;20039;-41
2023/06/19 17:16:31;;;;;;;9.88;4.03;;;24.40;1.00;;;;;;20429745;28;20074;-41
2023/06/19 17:26:56;;;;;;;8.48;5.28;;;24.30;1.00;;;;;;20423464;28;20047;-41
2023/06/19 17:37:18;;;;;;;6.85;4.90;;;24.20;1.00;;;;;;20411525;28;20054;-41
2023/06/19 17:47:39;;;;;;;6.07;3.65;;;24.00;1.00;;;;;;20420118;28;20070;-41
2023/06/19 17:58:00;;;;;;;7.75;4.43;;;23.80;1.00;;;;;;20415475;28;20094;-42
2023/06/19 18:08:22;;;;;;;7.82;4.70;;;23.50;1.00;;;;;;20460600;28;20380;-41
2023/06/19 18:18:43;;;;;;;6.53;4.30;;;23.40;1.00;;;;;;20445702;28;20308;-42
2023/06/19 18:29:04;;;;;;;5.95;3.78;;;23.30;1.00;;;;;;20444680;28;20478;-43
2023/06/19 18:39:26;;;;;;;5.63;3.50;;;23.10;1.00;;;;;;20425841;28;20050;-43
2023/06/19 18:49:49;;;;;;;5.38;3.55;;;23.10;1.00;;;;;;20428212;28;20302;-42
2023/06/19 19:00:11;;;;;;;5.68;3.47;;;22.90;1.00;;;;;;20419891;28;20046;-43
2023/06/19 19:10:32;;;;;;;6.85;3.70;;;22.80;1.00;;;;;;20426231;28;20176;-43
2023/06/19 19:20:54;;;;;;;6.10;3.50;;;22.60;1.00;;;;;;20416192;28;20423;-42
2023/06/19 19:31:15;;;;;;;8.18;3.15;;;22.40;1.00;;;;;;20429668;28;20039;-42
2023/06/19 19:41:36;;;;;;;5.47;3.38;;;22.30;1.00;;;;;;20427873;28;20229;-43
2023/06/19 19:51:58;;;;;;;6.20;4.15;;;22.10;1.00;;;;;;20420180;28;20051;-43
2023/06/19 20:02:19;;;;;;;6.10;3.28;;;22.00;1.00;;;;;;20424309;28;20039;-43
2023/06/19 20:12:40;;;;;;;6.72;3.75;;;22.00;1.00;;;;;;20424682;28;20035;-43
2023/06/19 20:23:02;;;;;;;8.13;4.28;;;21.90;1.00;;;;;;20416971;28;20034;-42
2023/06/19 20:33:23;;;;;;;6.63;3.78;;;21.90;1.00;;;;;;20420891;28;20031;-44
2023/06/19 20:43:45;;;;;;;5.55;3.60;;;21.80;1.00;;;;;;20427020;28;20055;-43
2023/06/19 20:54:06;;;;;;;8.43;4.18;;;21.70;1.00;;;;;;20427722;28;20047;-43
2023/06/19 21:04:28;;;;;;;6.10;3.38;;;21.60;1.00;;;;;;20431866;28;20039;-44
2023/06/19 21:14:50;;;;;;;6.00;3.35;;;21.40;1.00;;;;;;20438818;28;20817;-43
2023/06/19 21:25:11;;;;;;;6.00;3.38;;;21.50;1.00;;;;;;20426991;28;20402;-44
2023/06/19 21:35:33;;;;;;;6.30;3.72;;;21.40;1.00;;;;;;20442907;28;21133;-44
2023/06/19 21:45:56;;;;;;;6.75;3.70;;;21.30;1.00;;;;;;20439510;28;20131;-44
2023/06/19 21:56:18;;;;;;;7.28;3.67;;;21.20;1.00;;;;;;20439839;29;20515;-44
2023/06/19 22:06:39;;;;;;;6.20;3.50;;;21.10;1.00;;;;;;20441903;28;20042;-44
2023/06/19 22:17:03;;;;;;;6.45;3.67;;;20.90;1.00;;;;;;20426698;28;20027;-42
2023/06/19 22:27:24;;;;;;;7.20;3.67;;;20.80;1.00;;;;;;20436587;28;20057;-47
2023/06/19 22:37:46;;;;;;;5.93;3.83;;;20.80;1.00;;;;;;20435483;28;20038;-43
2023/06/19 22:48:07;;;;;;;5.38;3.33;;;20.70;1.00;;;;;;20436740;28;20051;-43
2023/06/19 22:58:29;;;;;;;7.63;4.38;;;20.70;1.00;;;;;;20440987;28;20499;-45
2023/06/19 23:08:50;;;;;;;7.95;4.10;;;20.60;1.00;;;;;;20436923;28;20066;-43
2023/06/19 23:19:11;;;;;;;6.47;3.90;;;20.50;1.00;;;;;;20428880;29;20062;-44
2023/06/19 23:29:33;;;;;;;8.15;4.13;;;20.60;1.00;;;;;;20434248;28;20042;-45
2023/06/19 23:39:54;;;;;;;6.55;4.03;;;20.60;1.00;;;;;;20423505;28;20211;-43
2023/06/19 23:50:16;;;;;;;7.68;4.70;;;20.60;1.00;;;;;;20429274;28;20555;-44
